Houn Maru — JG5489 — position and weather

sailwx.info

Track history (hours):
 
Tides and Currents Weather Stations Pressure Air Temp Water Temp Dewpoint Dewpoint Depression Visibility Wind Speed Wind Dir Waves Ship Positions

Houn Maru

Last reported at 2015-May-27 07:12 UTC. Time now 2015-May-28 04:07 UTC.
Position N 34°36' E 134°54'.

Length 91 m; draft 4.5 m.

Type: Tanker. MMSI: 431101172.

Date/timePositionNaut miles runAvg speedWind from/ knotsBaromVisibWave heightAir tempDewpointWater temp
2015-May-27 07:12N 34°36' E 134°54'812.5
2015-May-27 06:33N 34°36' E 135°03'1211.9
2015-May-27 05:33N 34°25' E 135°10'4 0.7
2015-May-27 00:12N 34°25' E 135°14'2 3.2
2015-May-26 23:29N 34°23' E 135°12'0 0.0
2015-May-26 22:23N 34°23' E 135°12'0 0.0
2015-May-26 21:26N 34°23' E 135°12'0 0.0
2015-May-26 20:26N 34°23' E 135°12'0 0.0
2015-May-26 19:32N 34°23' E 135°12'0 0.0
2015-May-26 18:32N 34°23' E 135°12'0 0.0
2015-May-26 17:26N 34°23' E 135°12'0 0.0
2015-May-26 16:32N 34°23' E 135°12'0 0.0
2015-May-26 15:32N 34°23' E 135°12'1 0.6
2015-May-26 14:33N 34°24' E 135°12'1211.5
2015-May-26 13:33N 34°34' E 135°04'5 0.2
2015-May-25 06:33N 34°37' E 135°01'1212.2
2015-May-25 05:33N 34°27' E 135°09'5 0.9
2015-May-25 00:11N 34°25' E 135°14'2 3.3
2015-May-24 23:33N 34°23' E 135°13'0 0.0
2015-May-24 22:24N 34°23' E 135°13'0 0.0
2015-May-24 21:06N 34°23' E 135°13'0 0.0
2015-May-24 20:18N 34°23' E 135°13'0 0.0
2015-May-24 19:30N 34°23' E 135°13'0 0.0
2015-May-24 18:33N 34°23' E 135°13'0 0.1
2015-May-24 17:30N 34°24' E 135°13'0 0.0
2015-May-24 16:18N 34°24' E 135°13'0 0.0
2015-May-24 15:18N 34°24' E 135°13'0 0.0
2015-May-24 14:33N 34°24' E 135°13'1 0.6
2015-May-24 13:34N 34°24' E 135°12'1110.9
2015-May-24 12:33N 34°33' E 135°05'10 9.7
2015-May-24 11:32N 34°35' E 134°53'3 0.1
2015-May-23 01:25N 34°36' E 134°55'1011.7
2015-May-23 00:33N 34°36' E 135°08'1312.4
2015-May-22 23:33N 34°36' E 135°23'1 0.1
2015-May-22 06:33N 34°36' E 135°24'1111.4
2015-May-22 05:33N 34°28' E 135°14'3 0.6
2015-May-22 00:06N 34°25' E 135°14'2 3.3
2015-May-21 23:30N 34°24' E 135°13'0 0.0
2015-May-21 22:33N 34°24' E 135°13'0 0.0
2015-May-21 21:27N 34°24' E 135°13'0 0.0
2015-May-21 20:33N 34°24' E 135°13'0 0.0
2015-May-21 18:27N 34°23' E 135°13'0 0.0
2015-May-21 17:33N 34°23' E 135°13'0 0.0
2015-May-21 16:33N 34°23' E 135°13'0 0.1
2015-May-21 15:33N 34°24' E 135°13'1 0.6
2015-May-21 13:32N 34°24' E 135°11'1010.3
2015-May-21 12:33N 34°33' E 135°05'7 7.0
2015-May-21 11:33N 34°36' E 134°58'3 0.1
2015-May-20 07:20N 34°36' E 134°54'7 8.6
2015-May-20 06:32N 34°37' E 135°02'9 9.3
2015-May-20 05:33N 34°29' E 135°08'6 6.3
2015-May-20 04:33N 34°25' E 135°14'0 0.0
2015-May-20 00:12N 34°25' E 135°14'2 3.2
2015-May-19 23:30N 34°23' E 135°12'0 0.0
2015-May-19 22:30N 34°23' E 135°13'0 0.1
2015-May-19 21:30N 34°23' E 135°12'0 0.0
2015-May-19 20:30N 34°23' E 135°12'0 0.0
2015-May-19 19:30N 34°23' E 135°12'0 0.0
2015-May-19 18:30N 34°23' E 135°12'0 0.0
2015-May-19 17:12N 34°23' E 135°13'0 0.0
2015-May-19 16:24N 34°23' E 135°13'0 0.0
2015-May-19 15:06N 34°23' E 135°13'0 0.1
2015-May-19 14:30N 34°23' E 135°12'7 7.3
2015-May-19 13:33N 34°29' E 135°07'9 9.3
2015-May-19 12:33N 34°37' E 135°01'5 0.2
2015-May-18 07:20N 34°36' E 134°56'7 9.1
2015-May-18 06:33N 34°36' E 135°04'1010.2
2015-May-18 05:33N 34°27' E 135°10'4 0.8
2015-May-18 00:16N 34°25' E 135°14'2 3.3
2015-May-17 23:33N 34°23' E 135°12'0 0.0
2015-May-17 22:31N 34°23' E 135°12'0 0.0
2015-May-17 21:31N 34°23' E 135°12'0 0.0
2015-May-17 20:31N 34°23' E 135°12'0 0.0
2015-May-17 19:31N 34°23' E 135°12'0 0.0
2015-May-17 18:31N 34°23' E 135°12'0 0.0
2015-May-17 17:31N 34°23' E 135°12'0 0.0
2015-May-17 16:31N 34°23' E 135°12'0 0.0
2015-May-17 15:25N 34°23' E 135°12'3 3.9
2015-May-17 14:33N 34°26' E 135°10'1111.5
2015-May-17 13:33N 34°36' E 135°03'10 9.6
2015-May-17 12:29N 34°33' E 134°51'  
Track history (hours):
 
Tides and Currents Weather Stations Pressure Air Temp Water Temp Dewpoint Dewpoint Depression Visibility Wind Speed Wind Dir Waves Ship Positions

Houn Maru

Last reported at 2015-May-27 07:12 UTC. Time now 2015-May-28 04:07 UTC.
Position N 34°36' E 134°54'.

Length 91 m; draft 4.5 m.

Type: Tanker. MMSI: 431101172.

Date/timePositionNaut miles runAvg speedWind from/ knotsBaromVisibWave heightAir tempDewpointWater temp
2015-May-27 07:12N 34°36' E 134°54'812.5
2015-May-27 06:33N 34°36' E 135°03'1211.9
2015-May-27 05:33N 34°25' E 135°10'4 0.7
2015-May-27 00:12N 34°25' E 135°14'2 3.2
2015-May-26 23:29N 34°23' E 135°12'0 0.0
2015-May-26 22:23N 34°23' E 135°12'0 0.0
2015-May-26 21:26N 34°23' E 135°12'0 0.0
2015-May-26 20:26N 34°23' E 135°12'0 0.0
2015-May-26 19:32N 34°23' E 135°12'0 0.0
2015-May-26 18:32N 34°23' E 135°12'0 0.0
2015-May-26 17:26N 34°23' E 135°12'0 0.0
2015-May-26 16:32N 34°23' E 135°12'0 0.0
2015-May-26 15:32N 34°23' E 135°12'1 0.6
2015-May-26 14:33N 34°24' E 135°12'1211.5
2015-May-26 13:33N 34°34' E 135°04'5 0.2
2015-May-25 06:33N 34°37' E 135°01'1212.2
2015-May-25 05:33N 34°27' E 135°09'5 0.9
2015-May-25 00:11N 34°25' E 135°14'2 3.3
2015-May-24 23:33N 34°23' E 135°13'0 0.0
2015-May-24 22:24N 34°23' E 135°13'0 0.0
2015-May-24 21:06N 34°23' E 135°13'0 0.0
2015-May-24 20:18N 34°23' E 135°13'0 0.0
2015-May-24 19:30N 34°23' E 135°13'0 0.0
2015-May-24 18:33N 34°23' E 135°13'0 0.1
2015-May-24 17:30N 34°24' E 135°13'0 0.0
2015-May-24 16:18N 34°24' E 135°13'0 0.0
2015-May-24 15:18N 34°24' E 135°13'0 0.0
2015-May-24 14:33N 34°24' E 135°13'1 0.6
2015-May-24 13:34N 34°24' E 135°12'1110.9
2015-May-24 12:33N 34°33' E 135°05'10 9.7
2015-May-24 11:32N 34°35' E 134°53'3 0.1
2015-May-23 01:25N 34°36' E 134°55'1011.7
2015-May-23 00:33N 34°36' E 135°08'1312.4
2015-May-22 23:33N 34°36' E 135°23'1 0.1
2015-May-22 06:33N 34°36' E 135°24'1111.4
2015-May-22 05:33N 34°28' E 135°14'3 0.6
2015-May-22 00:06N 34°25' E 135°14'2 3.3
2015-May-21 23:30N 34°24' E 135°13'0 0.0
2015-May-21 22:33N 34°24' E 135°13'0 0.0
2015-May-21 21:27N 34°24' E 135°13'0 0.0
2015-May-21 20:33N 34°24' E 135°13'0 0.0
2015-May-21 18:27N 34°23' E 135°13'0 0.0
2015-May-21 17:33N 34°23' E 135°13'0 0.0
2015-May-21 16:33N 34°23' E 135°13'0 0.1
2015-May-21 15:33N 34°24' E 135°13'1 0.6
2015-May-21 13:32N 34°24' E 135°11'1010.3
2015-May-21 12:33N 34°33' E 135°05'7 7.0
2015-May-21 11:33N 34°36' E 134°58'3 0.1
2015-May-20 07:20N 34°36' E 134°54'7 8.6
2015-May-20 06:32N 34°37' E 135°02'9 9.3
2015-May-20 05:33N 34°29' E 135°08'6 6.3
2015-May-20 04:33N 34°25' E 135°14'0 0.0
2015-May-20 00:12N 34°25' E 135°14'2 3.2
2015-May-19 23:30N 34°23' E 135°12'0 0.0
2015-May-19 22:30N 34°23' E 135°13'0 0.1
2015-May-19 21:30N 34°23' E 135°12'0 0.0
2015-May-19 20:30N 34°23' E 135°12'0 0.0
2015-May-19 19:30N 34°23' E 135°12'0 0.0
2015-May-19 18:30N 34°23' E 135°12'0 0.0
2015-May-19 17:12N 34°23' E 135°13'0 0.0
2015-May-19 16:24N 34°23' E 135°13'0 0.0
2015-May-19 15:06N 34°23' E 135°13'0 0.1
2015-May-19 14:30N 34°23' E 135°12'7 7.3
2015-May-19 13:33N 34°29' E 135°07'9 9.3
2015-May-19 12:33N 34°37' E 135°01'5 0.2
2015-May-18 07:20N 34°36' E 134°56'7 9.1
2015-May-18 06:33N 34°36' E 135°04'1010.2
2015-May-18 05:33N 34°27' E 135°10'4 0.8
2015-May-18 00:16N 34°25' E 135°14'2 3.3
2015-May-17 23:33N 34°23' E 135°12'0 0.0
2015-May-17 22:31N 34°23' E 135°12'0 0.0
2015-May-17 21:31N 34°23' E 135°12'0 0.0
2015-May-17 20:31N 34°23' E 135°12'0 0.0
2015-May-17 19:31N 34°23' E 135°12'0 0.0
2015-May-17 18:31N 34°23' E 135°12'0 0.0
2015-May-17 17:31N 34°23' E 135°12'0 0.0
2015-May-17 16:31N 34°23' E 135°12'0 0.0
2015-May-17 15:25N 34°23' E 135°12'3 3.9
2015-May-17 14:33N 34°26' E 135°10'1111.5
2015-May-17 13:33N 34°36' E 135°03'10 9.6
2015-May-17 12:29N 34°33' E 134°51'  

Dump ship's entire track history